Wilmington, OH (45177)

9:11 PM EDT on July 29, 2016 (GMT -0400)
2.2 N Wilmington | | Change Station
Active Advisory: Flash Flood Warning Active Notice: Record Report, Local Storm Report

Elev 1053 ft 39.47 °N, 83.84 °W | Updated 6 minutes ago

Light Rain
Light Rain
69.9 °F
Feels Like 69.9 °F
N
0.0
Wind Variable Wind from West
Gusts 4.0 mph

Today
High -- | Low -- °F
--% Chance of Precip.
Yesterday
High -- | Low -- °F
Precip. -- in
Pressure 29.94 in
Visibility 10.0 miles
Clouds Few 3100 ft
Mostly Cloudy 9000 ft
Dew Point 68 °F
Humidity 93%
Rainfall 0.30 in
Snow Depth Not available.
6:32 AM 8:50 PM
Waning Crescent, 17% visible
SPECI KILN 300106Z AUTO 28005KT 10SM -RA FEW031 BKN090 22/19 A2994 RMK AO2 LTG DSNT SE-W RAB04 P0000 T02170194
Pressure 29.94 in
Visibility 10.0 miles
Clouds Few 3100 ft
Mostly Cloudy 9000 ft
Dew Point 68 °F
Humidity 93%
Rainfall 0.30 in
Snow Depth Not available.
6:32 AM 8:50 PM
Waning Crescent, 17% visible
SPECI KILN 300106Z AUTO 28005KT 10SM -RA FEW031 BKN090 22/19 A2994 RMK AO2 LTG DSNT SE-W RAB04 P0000 T02170194

10-Day Weather Forecast

Almanac

Astronomy

Jul. 29, 2016 Rise Set
Actual Time
Civil Twilight
Nautical Twilight
Astronomical Twilight
Moon
Length of Visible Light
Length of Day
Tomorrow will be .
, % of the Moon is Illuminated

Today's Extremes

State Highs State Lows

Community

WunderPhotos

Upload Photos

1,928,464 photos uploaded!

WunderBlog® & News

Nearby

Air Quality

  Air Quality AQ Index Pollutant
Not available.

Snow Depth

Station Depth Elevation

Earthquake Activity

City Distance Mag. Time & Date
Minimum magnitude displayed is 2.5.

Coastal Water Temperatures

Place Temperature

Stations

Nearby Weather Stations

Station Location Temp. Windchill Dew Point Humidity Wind Precip. Elev Updated Type
                   

Watches & Warnings

Flash Flood Warning
Issued: 9:09 PM EDT Jul. 29, 2016 – National Weather Service

... The Flash Flood Warning for southeastern Warren and southwestern
Clinton counties will expire at 915 PM EDT...

The heavy rain has ended and flooding is no longer expected to pose
a threat. Some area roadways may be impassable from earlier
washouts. Do not bypass Road closed signage... the Road may not be
there and it is difficult to tell in the dark.

Please report previous flash flooding to the National Weather Service
by going to our website at weather.Gov/iln and submitting your report
via social media.

Lat... Lon 3936 8387 3930 8388 3929 8399 3930 8417
      3936 8416


Franks